Time;durP1;ratioP1;P1;durP2;ratioP2;P2;SDS_P1;SDS_P2;PMS_P1;PMS_P2;Temp;Humidity;BMP_temperature;BMP_pressure;BME280_temperature;BME280_humidity;BME280_pressure;Samples;Min_cycle;Max_cycle;Signal;HPM_P1;HPM_P2
2022/09/11 00:00:28;;;;;;;;;;;;;;;14.74;89.06;101619.75;5071648;28;19912;-81
2022/09/11 00:02:53;;;;;;;;;;;;;;;14.74;88.95;101621.59;5072943;28;19908;-81
2022/09/11 00:05:18;;;;;;;;;;;;;;;14.70;89.21;101628.94;5071271;28;19969;-80
2022/09/11 00:07:43;;;;;;;;;;;;;;;14.69;88.99;101624.56;5072599;28;19912;-81
2022/09/11 00:10:11;;;;;;;;;;;;;;;14.69;88.96;101624.56;5071791;28;19989;-81
2022/09/11 00:12:36;;;;;;;;;;;;;;;14.70;89.02;101622.75;5075661;28;19916;-81
2022/09/11 00:15:04;;;;;;;;;;;;;;;14.68;88.77;101622.84;5078720;28;20001;-81
2022/09/11 00:17:29;;;;;;;;;;;;;;;14.67;89.16;101622.94;5073328;28;19908;-80
2022/09/11 00:19:54;;;;;;;;;;;;;;;14.64;89.02;101629.38;5071896;28;19935;-80
2022/09/11 00:22:19;;;;;;;;;;;;;;;14.65;88.85;101624.91;5071559;28;20381;-81
2022/09/11 00:24:46;;;;;;;;;;;;;;;14.63;88.85;101618.78;5084634;28;19955;-80
2022/09/11 00:27:11;;;;;;;;;;;;;;;14.60;88.95;101627.88;5092082;28;19914;-81
2022/09/11 00:29:36;;;;;;;;;;;;;;;14.60;88.80;101630.53;5093394;28;20522;-80
2022/09/11 00:32:01;;;;;;;;;;;;;;;14.59;88.75;101630.63;5071934;28;19919;-81
2022/09/11 00:34:29;;;;;;;;;;;;;;;14.56;88.93;101639.75;5071637;28;20378;-80
2022/09/11 00:36:54;;;;;;;;;;;;;;;14.57;88.94;101640.59;5070066;28;19974;-81
2022/09/11 00:39:20;;;;;;;;;;;;;;;14.56;89.00;101639.75;5072727;28;20382;-80
2022/09/11 00:41:48;;;;;;;;;;;;;;;14.56;88.72;101642.44;5070814;28;19919;-81
2022/09/11 00:44:15;;;;;;;;;;;;;;;14.56;88.54;101645.13;5072642;28;19934;-80
2022/09/11 00:46:43;;;;;;;;;;;;;;;14.54;88.83;101652.38;5072818;28;19942;-81
2022/09/11 00:49:23;;;;;;;;;;;;;;;14.54;88.66;101653.22;5071422;28;20370;-81
2022/09/11 00:51:52;;;;;;;;;;;;;;;14.54;88.66;101641.66;5070965;28;19919;-81
2022/09/11 00:54:19;;;;;;;;;;;;;;;14.54;88.94;101649.69;5070656;28;19912;-81
2022/09/11 00:56:46;;;;;;;;;;;;;;;14.53;88.82;101650.66;5070607;28;20006;-81
2022/09/11 00:59:11;;;;;;;;;;;;;;;14.48;89.13;101653.59;5085397;28;20385;-81
2022/09/11 01:01:39;;;;;;;;;;;;;;;14.45;88.94;101643.09;5072293;28;19912;-81
2022/09/11 01:04:08;;;;;;;;;;;;;;;14.42;88.89;101654.03;5088978;28;20358;-81
2022/09/11 01:06:33;;;;;;;;;;;;;;;14.42;88.87;101658.53;5087019;28;19912;-81
2022/09/11 01:09:02;;;;;;;;;;;;;;;14.42;88.97;101663.88;5072290;28;20337;-81
2022/09/11 01:11:37;;;;;;;;;;;;;;;14.39;88.93;101656.91;5056133;28;20359;-81
2022/09/11 01:14:20;;;;;;;;;;;;;;;14.38;88.74;101665.88;5070718;28;19920;-81
2022/09/11 01:16:55;;;;;;;;;;;;;;;14.36;89.12;101658.94;5074259;28;19916;-81
2022/09/11 01:19:40;;;;;;;;;;;;;;;14.36;89.21;101669.63;5065195;28;19923;-81
2022/09/11 01:22:21;;;;;;;;;;;;;;;14.33;89.29;101659.97;5069969;28;20378;-81
2022/09/11 01:24:53;;;;;;;;;;;;;;;14.24;89.26;101645.38;5075959;28;19912;-81
2022/09/11 01:27:24;;;;;;;;;;;;;;;14.29;89.32;101653.97;5079862;28;19959;-81
2022/09/11 01:29:56;;;;;;;;;;;;;;;14.27;89.50;101661.25;5072077;28;19923;-81
2022/09/11 01:32:25;;;;;;;;;;;;;;;14.27;89.50;101658.56;5086268;28;20294;-81
2022/09/11 01:34:50;;;;;;;;;;;;;;;14.29;89.44;101656.66;5071026;28;20007;-81
2022/09/11 01:37:24;;;;;;;;;;;;;;;14.28;89.55;101656.75;5070895;28;20003;-81
2022/09/11 01:39:53;;;;;;;;;;;;;;;14.26;89.48;101658.66;5076467;28;19922;-81
2022/09/11 01:42:21;;;;;;;;;;;;;;;14.26;89.43;101661.31;5077391;28;19959;-81
2022/09/11 01:44:54;;;;;;;;;;;;;;;14.25;89.40;101668.50;5071541;28;19912;-81
2022/09/11 01:47:21;;;;;;;;;;;;;;;14.20;89.16;101673.28;5071375;28;19930;-81
2022/09/11 01:49:49;;;;;;;;;;;;;;;14.18;89.31;101674.38;5071953;28;19913;-81
2022/09/11 01:52:20;;;;;;;;;;;;;;;14.19;89.62;101674.25;5103829;28;20298;-80
2022/09/11 01:54:50;;;;;;;;;;;;;;;14.19;89.69;101673.41;5070576;28;19912;-81
2022/09/11 01:57:23;;;;;;;;;;;;;;;14.18;89.76;101669.03;5070817;28;19939;-81
2022/09/11 01:59:51;;;;;;;;;;;;;;;14.16;89.94;101668.25;5075040;28;19916;-81
2022/09/11 02:02:20;;;;;;;;;;;;;;;14.17;90.01;101669.97;5070468;28;20385;-81
2022/09/11 02:04:48;;;;;;;;;;;;;;;14.17;89.52;101673.50;5070707;28;19923;-81
2022/09/11 02:07:16;;;;;;;;;;;;;;;14.15;89.64;101672.75;5071843;28;20320;-81
2022/09/11 02:10:16;;;;;;;;;;;;;;;14.14;89.75;101670.16;5070419;28;19908;-81
2022/09/11 02:12:47;;;;;;;;;;;;;;;14.13;89.56;101680.00;5033273;28;19919;-81
2022/09/11 02:15:16;;;;;;;;;;;;;;;14.14;89.47;101684.38;5066879;28;19928;-81
2022/09/11 02:17:47;;;;;;;;;;;;;;;14.14;89.76;101681.72;5071938;28;20405;-81
2022/09/11 02:20:15;;;;;;;;;;;;;;;14.13;89.78;101682.69;5071443;28;19951;-81
2022/09/11 02:22:41;;;;;;;;;;;;;;;14.09;89.57;101679.34;5070799;28;19912;-81
2022/09/11 02:25:06;;;;;;;;;;;;;;;14.08;89.73;101684.78;5073610;28;20252;-81
2022/09/11 02:27:32;;;;;;;;;;;;;;;14.06;89.61;101684.91;5070773;28;20274;-81
2022/09/11 02:30:00;;;;;;;;;;;;;;;14.05;89.55;101685.00;5071860;28;20259;-81
2022/09/11 02:32:26;;;;;;;;;;;;;;;14.05;89.69;101680.50;5070633;28;20374;-81
2022/09/11 02:34:54;;;;;;;;;;;;;;;14.04;89.73;101681.47;5073404;28;19990;-81
2022/09/11 02:37:29;;;;;;;;;;;;;;;14.04;89.76;101684.13;5073126;28;19959;-81
2022/09/11 02:40:03;;;;;;;;;;;;;;;14.02;89.62;101678.00;5072941;28;19923;-81
2022/09/11 02:42:31;;;;;;;;;;;;;;;14.02;89.38;101682.50;5074472;28;19927;-81
2022/09/11 02:45:05;;;;;;;;;;;;;;;14.00;89.56;101673.72;5074273;28;19974;-81
2022/09/11 02:47:52;;;;;;;;;;;;;;;14.00;89.50;101685.31;5074026;28;19924;-81
2022/09/11 02:50:32;;;;;;;;;;;;;;;13.84;89.42;101664.00;5073779;28;19908;-81
2022/09/11 02:53:20;;;;;;;;;;;;;;;13.94;89.39;101684.81;5073205;28;19912;-81
2022/09/11 02:56:04;;;;;;;;;;;;;;;13.88;89.35;101686.06;5073872;28;20374;-81
2022/09/11 02:58:33;;;;;;;;;;;;;;;13.87;89.40;101684.34;5074610;28;19919;-81
2022/09/11 03:01:02;;;;;;;;;;;;;;;13.87;89.42;101689.69;5073805;28;19960;-81
2022/09/11 03:03:27;;;;;;;;;;;;;;;13.88;89.37;101693.22;5074358;28;19915;-81
2022/09/11 03:05:55;;;;;;;;;;;;;;;13.86;89.35;101691.53;5074114;28;19912;-81
2022/09/11 03:08:20;;;;;;;;;;;;;;;13.86;89.48;101696.88;5073267;28;19919;-81
2022/09/11 03:10:48;;;;;;;;;;;;;;;13.82;89.42;101694.47;5076259;28;19912;-81
2022/09/11 03:13:14;;;;;;;;;;;;;;;13.79;89.57;101700.88;5083788;28;20274;-81
2022/09/11 03:15:42;;;;;;;;;;;;;;;13.79;89.71;101705.34;5077729;28;20087;-81
2022/09/11 03:18:07;;;;;;;;;;;;;;;13.79;89.54;101692.84;5072506;28;19916;-81
2022/09/11 03:20:33;;;;;;;;;;;;;;;13.79;89.56;101702.69;5073462;28;20316;-81
2022/09/11 03:23:00;;;;;;;;;;;;;;;13.76;89.43;101701.06;5072406;28;20343;-81
2022/09/11 03:25:27;;;;;;;;;;;;;;;13.77;89.50;101693.94;5074249;28;19923;-81
2022/09/11 03:27:53;;;;;;;;;;;;;;;13.76;89.65;101698.38;5087810;28;19912;-81
2022/09/11 03:30:18;;;;;;;;;;;;;;;13.74;89.64;101696.78;5072256;28;19912;-81
2022/09/11 03:32:44;;;;;;;;;;;;;;;13.70;89.51;101695.25;5072961;28;19912;-81
2022/09/11 03:35:10;;;;;;;;;;;;;;;13.70;89.56;101698.78;5072091;28;19912;-81
2022/09/11 03:37:35;;;;;;;;;;;;;;;13.72;89.57;101699.53;5076092;28;19919;-81
2022/09/11 03:40:01;;;;;;;;;;;;;;;13.70;89.46;101704.13;5073971;28;20290;-81
2022/09/11 03:42:27;;;;;;;;;;;;;;;13.68;89.80;101697.16;5072108;28;20678;-81
2022/09/11 03:44:53;;;;;;;;;;;;;;;13.68;89.50;101708.72;5072611;28;19908;-81
2022/09/11 03:47:20;;;;;;;;;;;;;;;13.68;89.52;101700.72;5077213;28;19912;-81
2022/09/11 03:49:47;;;;;;;;;;;;;;;13.70;89.33;101708.63;5075219;28;19912;-81
2022/09/11 03:52:12;;;;;;;;;;;;;;;13.69;89.40;101706.91;5092050;28;20413;-81
2022/09/11 03:54:38;;;;;;;;;;;;;;;13.68;89.59;101705.16;5073306;28;20053;-81
2022/09/11 03:57:06;;;;;;;;;;;;;;;13.62;89.37;101704.63;5072322;28;19953;-81
2022/09/11 03:59:31;;;;;;;;;;;;;;;13.60;89.54;101700.31;5071528;28;20037;-81
2022/09/11 04:01:56;;;;;;;;;;;;;;;13.57;89.64;101703.19;5083628;28;20389;-81
2022/09/11 04:04:22;;;;;;;;;;;;;;;13.56;89.76;101704.13;5078525;28;19916;-81
2022/09/11 04:06:47;;;;;;;;;;;;;;;13.54;89.75;101698.03;5073271;28;19912;-81
2022/09/11 04:09:16;;;;;;;;;;;;;;;13.51;89.84;101700.88;5072234;28;19909;-81
2022/09/11 04:11:43;;;;;;;;;;;;;;;13.49;90.12;101702.78;5074200;28;19912;-81
2022/09/11 04:14:08;;;;;;;;;;;;;;;13.48;90.09;101704.59;5071612;28;19920;-81
2022/09/11 04:16:34;;;;;;;;;;;;;;;13.48;90.11;101698.41;5073322;28;19965;-81
2022/09/11 04:19:02;;;;;;;;;;;;;;;13.48;90.07;101699.25;5105848;28;20401;-81
2022/09/11 04:21:28;;;;;;;;;;;;;;;13.49;90.02;101700.97;5083618;28;19912;-81
2022/09/11 04:23:54;;;;;;;;;;;;;;;13.49;89.78;101698.28;5076822;28;19912;-81
2022/09/11 04:26:20;;;;;;;;;;;;;;;13.51;90.08;101703.56;5073121;28;19909;-81
2022/09/11 04:28:46;;;;;;;;;;;;;;;13.50;89.79;101704.50;5072035;28;19958;-81
2022/09/11 04:31:11;;;;;;;;;;;;;;;13.50;90.04;101700.03;5072582;28;19959;-81
2022/09/11 04:33:38;;;;;;;;;;;;;;;13.50;90.03;101699.16;5074203;28;20014;-81
2022/09/11 04:36:11;;;;;;;;;;;;;;;13.49;89.84;101706.31;5105088;28;19908;-81
2022/09/11 04:38:38;;;;;;;;;;;;;;;13.48;89.82;101706.44;5083391;28;20054;-81
2022/09/11 04:41:04;;;;;;;;;;;;;;;13.43;90.08;101701.34;5084271;28;19927;-81
2022/09/11 04:43:30;;;;;;;;;;;;;;;13.40;89.98;101707.75;5071470;28;20290;-81
2022/09/11 04:46:23;;;;;;;;;;;;;;;13.37;90.03;101710.59;5072714;28;19908;-81
2022/09/11 04:48:58;;;;;;;;;;;;;;;13.36;90.24;101700.88;5069310;28;19957;-81
2022/09/11 04:51:31;;;;;;;;;;;;;;;13.37;90.21;101713.28;5070996;28;20046;-81
2022/09/11 04:53:56;;;;;;;;;;;;;;;13.39;90.12;101715.88;5071504;28;19908;-81
2022/09/11 04:56:23;;;;;;;;;;;;;;;13.37;90.19;101715.09;5073217;28;20373;-81
2022/09/11 04:59:12;;;;;;;;;;;;;;;13.37;90.15;101725.78;5071355;28;19916;-81
2022/09/11 05:01:37;;;;;;;;;;;;;;;13.34;90.25;101715.28;5083679;28;19963;-81
2022/09/11 05:04:02;;;;;;;;;;;;;;;13.33;90.28;101709.09;5092423;28;20000;-81
2022/09/11 05:06:29;;;;;;;;;;;;;;;13.32;90.27;101707.34;5091009;28;19914;-81
2022/09/11 05:08:55;;;;;;;;;;;;;;;13.32;90.36;101714.50;5092715;28;19995;-81
2022/09/11 05:11:24;;;;;;;;;;;;;;;13.32;90.49;101718.03;5083846;28;19948;-81
2022/09/11 05:13:50;;;;;;;;;;;;;;;13.32;90.43;101722.50;5104335;28;19924;-81
2022/09/11 05:16:18;;;;;;;;;;;;;;;13.30;90.47;101727.97;5072330;28;19912;-81
2022/09/11 05:18:49;;;;;;;;;;;;;;;13.30;90.35;101727.97;5071123;28;19909;-81
2022/09/11 05:21:17;;;;;;;;;;;;;;;13.30;90.27;101738.66;5070561;28;19920;-81
2022/09/11 05:23:46;;;;;;;;;;;;;;;13.27;90.15;101746.00;5072154;28;20259;-81
2022/09/11 05:26:15;;;;;;;;;;;;;;;13.24;90.49;101751.50;5083087;28;20294;-81
2022/09/11 05:28:41;;;;;;;;;;;;;;;13.20;90.44;101753.47;5087721;28;19916;-81
2022/09/11 05:31:14;;;;;;;;;;;;;;;13.17;90.29;101765.19;5072602;28;19909;-81
2022/09/11 05:33:40;;;;;;;;;;;;;;;13.10;90.10;101768.34;5071836;28;19916;-81
2022/09/11 05:36:05;;;;;;;;;;;;;;;13.06;90.25;101778.34;5071868;28;19908;-81
2022/09/11 05:38:32;;;;;;;;;;;;;;;13.03;90.42;101777.63;5070804;28;19958;-81
2022/09/11 05:41:04;;;;;;;;;;;;;;;13.03;90.16;101781.19;5071454;28;20447;-81
2022/09/11 05:43:29;;;;;;;;;;;;;;;13.00;90.07;101784.03;5071848;28;20294;-81
2022/09/11 05:45:56;;;;;;;;;;;;;;;12.98;89.96;101780.59;5070971;28;19919;-81
2022/09/11 05:48:21;;;;;;;;;;;;;;;12.97;89.93;101786.91;5100236;28;19919;-82
2022/09/11 05:50:53;;;;;;;;;;;;;;;12.92;89.94;101783.63;5071752;28;19913;-81
2022/09/11 05:53:19;;;;;;;;;;;;;;;12.88;89.98;101793.63;5070145;28;19919;-81
2022/09/11 05:55:48;;;;;;;;;;;;;;;12.89;89.91;101799.81;5071691;28;19971;-81
2022/09/11 05:58:16;;;;;;;;;;;;;;;12.91;89.94;101803.25;5070014;28;20379;-81
2022/09/11 06:00:50;;;;;;;;;;;;;;;12.92;89.90;101802.31;5071764;28;19920;-81
2022/09/11 06:03:20;;;;;;;;;;;;;;;12.93;89.44;101810.22;5070054;28;20302;-81
2022/09/11 06:05:45;;;;;;;;;;;;;;;12.94;89.70;101811.06;5071769;28;20325;-81
2022/09/11 06:08:13;;;;;;;;;;;;;;;12.96;89.70;101804.69;5073387;28;19912;-81
2022/09/11 06:10:47;;;;;;;;;;;;;;;12.98;89.71;101812.63;5075850;28;20392;-81
2022/09/11 06:13:16;;;;;;;;;;;;;;;13.01;90.00;101804.44;5077554;28;19916;-81
2022/09/11 06:15:45;;;;;;;;;;;;;;;13.05;89.73;101810.47;5070213;28;20310;-81
2022/09/11 06:18:13;;;;;;;;;;;;;;;13.09;89.84;101818.22;5078434;28;19919;-81
2022/09/11 06:20:53;;;;;;;;;;;;;;;13.10;89.90;101822.59;5076373;28;20366;-81
2022/09/11 06:23:23;;;;;;;;;;;;;;;13.15;89.81;101822.34;5079912;28;19972;-81
2022/09/11 06:25:48;;;;;;;;;;;;;;;13.16;89.85;101832.06;5079114;28;19916;-81
2022/09/11 06:28:14;;;;;;;;;;;;;;;13.17;89.98;101833.78;5080409;28;20429;-81
2022/09/11 06:30:41;;;;;;;;;;;;;;;13.17;89.92;101833.78;5075017;28;20301;-81
2022/09/11 06:33:07;;;;;;;;;;;;;;;13.19;89.86;101830.09;5072934;28;20444;-81
2022/09/11 06:35:32;;;;;;;;;;;;;;;13.27;89.54;101842.19;5093222;28;20347;-81
2022/09/11 06:37:57;;;;;;;;;;;;;;;13.25;89.91;101834.25;5080582;28;19908;-81
2022/09/11 06:40:23;;;;;;;;;;;;;;;13.24;89.92;101840.50;5094184;28;19917;-81
2022/09/11 06:42:49;;;;;;;;;;;;;;;13.27;89.42;101842.19;5079533;28;19912;-81
2022/09/11 06:45:15;;;;;;;;;;;;;;;13.25;89.59;101836.03;5074726;28;19935;-81
2022/09/11 06:47:43;;;;;;;;;;;;;;;13.27;89.68;101840.38;5090950;28;20385;-81
2022/09/11 06:50:10;;;;;;;;;;;;;;;13.32;89.88;101840.94;5073858;28;19962;-81
2022/09/11 06:52:36;;;;;;;;;;;;;;;13.37;89.53;101841.53;5072663;28;19912;-81
2022/09/11 06:55:01;;;;;;;;;;;;;;;13.41;89.81;101850.22;5073278;28;19912;-81
2022/09/11 06:57:27;;;;;;;;;;;;;;;13.45;89.58;101846.44;5069854;28;19956;-81
2022/09/11 06:59:56;;;;;;;;;;;;;;;13.51;90.04;101851.41;5073587;28;19967;-81
2022/09/11 07:02:21;;;;;;;;;;;;;;;13.59;89.72;101851.81;5071786;28;19917;-81
2022/09/11 07:04:49;;;;;;;;;;;;;;;13.63;89.96;101847.16;5066556;28;19908;-81
2022/09/11 07:07:14;;;;;;;;;;;;;;;13.67;89.49;101851.34;5071725;28;20425;-80
2022/09/11 07:09:42;;;;;;;;;;;;;;;13.69;89.93;101846.78;5089823;28;19912;-81
2022/09/11 07:12:07;;;;;;;;;;;;;;;13.75;89.96;101850.91;5073982;28;20287;-81
2022/09/11 07:14:32;;;;;;;;;;;;;;;13.79;89.80;101852.44;5074010;28;19920;-81
2022/09/11 07:16:59;;;;;;;;;;;;;;;13.81;89.78;101848.72;5078050;28;19918;-81
2022/09/11 07:19:25;;;;;;;;;;;;;;;13.84;89.94;101845.00;5085732;28;20379;-81
2022/09/11 07:21:50;;;;;;;;;;;;;;;13.89;90.18;101842.91;5073938;28;20011;-81
2022/09/11 07:24:18;;;;;;;;;;;;;;;13.98;90.47;101844.16;5073090;28;19927;-81
2022/09/11 07:26:45;;;;;;;;;;;;;;;14.07;90.63;101841.75;5086376;28;19915;-81
2022/09/11 07:29:13;;;;;;;;;;;;;;;14.15;90.47;101849.34;5088425;28;19958;-81
2022/09/11 07:31:41;;;;;;;;;;;;;;;14.17;90.56;101844.72;5074742;28;19912;-81
2022/09/11 07:34:09;;;;;;;;;;;;;;;14.20;90.72;101841.84;5086910;28;19912;-81
2022/09/11 07:36:36;;;;;;;;;;;;;;;14.32;90.93;101848.25;5069389;28;19951;-80
2022/09/11 07:39:02;;;;;;;;;;;;;;;14.48;89.38;101848.16;5073696;28;19919;-80
2022/09/11 07:41:30;;;;;;;;;;;;;;;14.46;90.31;101850.06;5089033;28;19912;-81
2022/09/11 07:43:59;;;;;;;;;;;;;;;14.52;90.43;101839.00;5074346;28;19952;-81
2022/09/11 07:46:25;;;;;;;;;;;;;;;14.62;90.47;101848.19;5078321;28;19912;-80
2022/09/11 07:48:51;;;;;;;;;;;;;;;14.66;91.15;101838.97;5073506;28;19913;-80
2022/09/11 07:51:20;;;;;;;;;;;;;;;14.73;90.92;101842.97;5073830;28;19965;-80
2022/09/11 07:53:46;;;;;;;;;;;;;;;14.77;90.41;101847.19;5089774;28;20362;-80
2022/09/11 07:56:15;;;;;;;;;;;;;;;14.79;90.83;101854.25;5079914;28;19922;-80
2022/09/11 07:58:41;;;;;;;;;;;;;;;14.83;90.94;101853.13;5083510;28;19912;-80
2022/09/11 08:01:16;;;;;;;;;;;;;;;14.88;90.76;101857.22;5073421;28;20390;-80
2022/09/11 08:03:42;;;;;;;;;;;;;;;14.95;91.23;101855.84;5073844;28;20432;-80
2022/09/11 08:06:17;;;;;;;;;;;;;;;15.03;90.27;101855.34;5071811;28;20003;-80
2022/09/11 08:08:45;;;;;;;;;;;;;;;15.09;90.08;101859.41;5073574;28;20362;-80
2022/09/11 08:11:12;;;;;;;;;;;;;;;15.16;90.56;101864.28;5072001;28;19908;-79
2022/09/11 08:13:40;;;;;;;;;;;;;;;15.26;90.85;101861.00;5073424;28;19971;-79
2022/09/11 08:16:05;;;;;;;;;;;;;;;15.39;91.34;101861.91;5072240;28;20011;-80
2022/09/11 08:18:31;;;;;;;;;;;;;;;15.48;91.77;101863.09;5074694;28;20057;-80
2022/09/11 08:21:04;;;;;;;;;;;;;;;15.58;91.85;101870.41;5085164;28;20370;-80
2022/09/11 08:23:30;;;;;;;;;;;;;;;15.71;91.01;101877.69;5077322;28;20300;-80
2022/09/11 08:26:01;;;;;;;;;;;;;;;15.81;91.82;101876.91;5073373;28;19915;-79
2022/09/11 08:28:26;;;;;;;;;;;;;;;15.92;91.82;101878.88;5072801;28;19918;-77
2022/09/11 08:30:55;;;;;;;;;;;;;;;16.08;92.19;101892.06;5071552;28;19912;-77
2022/09/11 08:33:21;;;;;;;;;;;;;;;16.21;92.33;101884.03;5070055;28;19912;-77
2022/09/11 08:35:46;;;;;;;;;;;;;;;16.27;92.36;101883.63;5074970;28;20014;-77
2022/09/11 08:38:11;;;;;;;;;;;;;;;16.43;92.49;101886.91;5076129;28;19908;-77
2022/09/11 08:40:37;;;;;;;;;;;;;;;16.61;92.61;101881.19;5087255;28;20025;-77
2022/09/11 08:43:03;;;;;;;;;;;;;;;16.77;92.50;101879.16;5093637;28;19908;-77
2022/09/11 08:45:32;;;;;;;;;;;;;;;16.95;92.03;101885.88;5092205;28;19914;-77
2022/09/11 08:47:58;;;;;;;;;;;;;;;17.12;91.86;101887.31;5092147;28;20251;-77
2022/09/11 08:50:25;;;;;;;;;;;;;;;17.30;91.52;101885.09;5069420;28;19946;-77
2022/09/11 08:52:53;;;;;;;;;;;;;;;17.49;91.18;101885.41;5070431;28;20381;-77
2022/09/11 08:55:23;;;;;;;;;;;;;;;17.70;90.79;101892.81;5072626;28;19958;-77
2022/09/11 08:57:48;;;;;;;;;;;;;;;17.89;90.26;101892.31;5071746;28;19912;-77
2022/09/11 09:00:19;;;;;;;;;;;;;;;18.06;89.89;101889.16;5074854;28;19960;-77
2022/09/11 09:02:51;;;;;;;;;;;;;;;18.15;87.02;101883.06;5087660;28;20332;-77
2022/09/11 09:05:27;;;;;;;;;;;;;;;18.11;87.76;101892.31;5075919;28;20278;-77
2022/09/11 09:08:00;;;;;;;;;;;;;;;18.06;87.74;101894.53;5075937;28;20006;-77
2022/09/11 09:10:37;;;;;;;;;;;;;;;18.17;87.90;101886.47;5084937;28;19961;-77
2022/09/11 09:13:14;;;;;;;;;;;;;;;18.35;87.24;101888.69;5082134;28;20377;-77
2022/09/11 09:16:01;;;;;;;;;;;;;;;18.54;86.91;101896.16;5072445;28;19965;-77
2022/09/11 09:18:26;;;;;;;;;;;;;;;18.75;86.32;101894.47;5075641;28;19916;-77
2022/09/11 09:21:03;;;;;;;;;;;;;;;18.95;86.65;101900.94;5090001;28;20006;-77
2022/09/11 09:23:35;;;;;;;;;;;;;;;19.22;84.47;101899.63;5079297;28;19908;-77
2022/09/11 09:26:00;;;;;;;;;;;;;;;19.44;85.52;101902.28;5073200;28;19935;-77
2022/09/11 09:28:28;;;;;;;;;;;;;;;19.72;83.95;101908.06;5084472;28;19916;-77
2022/09/11 09:30:56;;;;;;;;;;;;;;;19.90;84.24;101908.31;5089531;28;20041;-77
2022/09/11 09:33:30;;;;;;;;;;;;;;;20.10;81.17;101893.13;5090324;28;19954;-77
2022/09/11 09:35:58;;;;;;;;;;;;;;;20.27;81.70;101902.47;5084963;28;19908;-77
2022/09/11 09:38:28;;;;;;;;;;;;;;;20.49;81.06;101904.13;5083864;28;19912;-77
2022/09/11 09:41:06;;;;;;;;;;;;;;;20.55;78.80;101904.44;5071043;28;19912;-77
2022/09/11 09:43:46;;;;;;;;;;;;;;;20.56;78.15;101913.41;5071208;28;19908;-77
2022/09/11 09:46:11;;;;;;;;;;;;;;;20.54;77.77;101910.84;5076443;28;20392;-77
2022/09/11 09:48:38;;;;;;;;;;;;;;;20.62;77.49;101908.34;5076528;28;20000;-77
2022/09/11 09:51:03;;;;;;;;;;;;;;;20.53;76.65;101914.56;5074629;28;20007;-77
2022/09/11 09:53:40;;;;;;;;;;;;;;;20.41;78.00;101911.06;5076360;28;20021;-77
2022/09/11 09:56:11;;;;;;;;;;;;;;;20.28;78.18;101906.84;5075091;28;19908;-77
2022/09/11 09:58:41;;;;;;;;;;;;;;;20.18;79.54;101904.13;5075371;28;19908;-77
2022/09/11 10:01:25;;;;;;;;;;;;;;;20.10;81.13;101896.66;5074790;28;20332;-77
2022/09/11 10:04:11;;;;;;;;;;;;;;;20.06;78.35;101905.16;5076295;28;19909;-77
2022/09/11 10:06:40;;;;;;;;;;;;;;;20.25;76.85;101915.22;5074604;28;19986;-77
2022/09/11 10:09:18;;;;;;;;;;;;;;;20.53;78.27;101917.25;5086882;28;19908;-77
2022/09/11 10:11:45;;;;;;;;;;;;;;;20.74;76.45;101910.94;5082161;28;20286;-77
2022/09/11 10:14:20;;;;;;;;;;;;;;;21.02;77.05;101906.59;5078733;28;20404;-77
2022/09/11 10:16:49;;;;;;;;;;;;;;;21.36;71.72;101915.25;5095597;28;19912;-77
2022/09/11 10:19:33;;;;;;;;;;;;;;;21.37;73.17;101916.09;5097428;28;19951;-77
2022/09/11 10:22:17;;;;;;;;;;;;;;;21.28;74.35;101913.19;5095938;28;19908;-77
2022/09/11 10:24:51;;;;;;;;;;;;;;;21.18;73.98;101914.16;5095873;28;19908;-77
2022/09/11 10:27:16;;;;;;;;;;;;;;;21.08;71.96;101915.00;5095297;28;19994;-76
2022/09/11 10:29:49;;;;;;;;;;;;;;;21.01;74.71;101903.03;5095848;28;19939;-77
2022/09/11 10:32:16;;;;;;;;;;;;;;;20.90;74.32;101905.00;5095265;28;19908;-77
2022/09/11 10:34:44;;;;;;;;;;;;;;;20.80;75.49;101907.69;5096111;28;19915;-77
2022/09/11 10:37:15;;;;;;;;;;;;;;;20.73;77.19;101911.91;5094497;28;20320;-77
2022/09/11 10:39:45;;;;;;;;;;;;;;;20.90;74.72;101907.72;5094559;28;19915;-77
2022/09/11 10:42:20;;;;;;;;;;;;;;;21.15;74.48;101904.50;5095750;28;20354;-76
2022/09/11 10:44:46;;;;;;;;;;;;;;;21.49;72.21;101904.13;5093221;28;19908;-76
2022/09/11 10:47:14;;;;;;;;;;;;;;;21.84;71.92;101902.69;5075029;28;19973;-76
2022/09/11 10:49:39;;;;;;;;;;;;;;;22.05;72.29;101907.91;5107733;28;20351;-76
2022/09/11 10:52:07;;;;;;;;;;;;;;;22.32;74.21;101904.44;5079445;28;19965;-76
2022/09/11 10:54:54;;;;;;;;;;;;;;;22.70;73.01;101906.16;5094435;28;20374;-76
2022/09/11 10:57:24;;;;;;;;;;;;;;;23.07;64.27;101906.13;5095456;28;19974;-76
2022/09/11 11:00:07;;;;;;;;;;;;;;;23.28;73.16;101904.97;5093886;28;19916;-76
2022/09/11 11:02:34;;;;;;;;;;;;;;;23.59;68.86;101905.47;5084140;28;19915;-76
2022/09/11 11:05:25;;;;;;;;;;;;;;;23.88;68.93;101905.19;5094147;28;19912;-76
2022/09/11 11:08:02;;;;;;;;;;;;;;;24.17;64.42;101902.16;5066008;28;19908;-76
2022/09/11 11:10:31;;;;;;;;;;;;;;;24.29;65.09;101905.47;5093844;28;19908;-76
2022/09/11 11:13:03;;;;;;;;;;;;;;;24.60;65.75;101907.72;5093587;28;19916;-76
2022/09/11 11:15:37;;;;;;;;;;;;;;;24.48;68.06;101904.44;5093712;28;19920;-76
2022/09/11 11:18:12;;;;;;;;;;;;;;;24.21;63.42;101905.44;5095019;28;19961;-76
2022/09/11 11:20:38;;;;;;;;;;;;;;;23.93;68.33;101908.31;5095132;28;19919;-76
2022/09/11 11:23:27;;;;;;;;;;;;;;;23.77;65.75;101910.91;5091198;28;19908;-76
2022/09/11 11:26:01;;;;;;;;;;;;;;;23.56;67.19;101900.34;5092802;28;19916;-76
2022/09/11 11:28:44;;;;;;;;;;;;;;;23.48;65.31;101908.41;5093541;28;19944;-76
2022/09/11 11:31:21;;;;;;;;;;;;;;;23.43;63.64;101900.72;5094716;28;19912;-76
2022/09/11 11:34:05;;;;;;;;;;;;;;;23.85;62.93;101901.94;5093997;28;19915;-76
2022/09/11 11:36:49;;;;;;;;;;;;;;;24.61;62.29;101899.38;5066678;28;20354;-76
2022/09/11 11:39:24;;;;;;;;;;;;;;;25.86;58.95;101900.38;5079242;28;20390;-76
2022/09/11 11:42:21;;;;;;;;;;;;;;;26.02;58.79;101899.50;5077828;28;19991;-76
2022/09/11 11:44:50;;;;;;;;;;;;;;;25.20;61.56;101901.31;5051052;28;19912;-76
2022/09/11 11:47:18;;;;;;;;;;;;;;;24.55;60.84;101902.75;5081620;28;19920;-76
2022/09/11 11:49:58;;;;;;;;;;;;;;;24.09;62.00;101894.00;5081543;28;19913;-76
2022/09/11 11:52:46;;;;;;;;;;;;;;;24.12;62.68;101898.22;5093932;28;19912;-76
2022/09/11 11:55:20;;;;;;;;;;;;;;;25.50;62.05;101887.06;5074593;28;19916;-76
2022/09/11 11:58:01;;;;;;;;;;;;;;;27.08;58.28;101887.34;5074109;28;20416;-76
2022/09/11 12:00:27;;;;;;;;;;;;;;;28.56;55.55;101887.78;5088765;28;19955;-76
2022/09/11 12:03:16;;;;;;;;;;;;;;;29.66;49.77;101878.50;5074276;28;19912;-77
2022/09/11 12:05:41;;;;;;;;;;;;;;;30.29;53.65;101878.56;5066192;28;19912;-77
2022/09/11 12:08:13;;;;;;;;;;;;;;;30.87;50.35;101876.31;5073465;28;19916;-77
2022/09/11 12:10:43;;;;;;;;;;;;;;;31.56;42.33;101879.84;5076734;28;19919;-77
2022/09/11 12:13:16;;;;;;;;;;;;;;;31.98;50.10;101877.78;5092445;28;19916;-77
2022/09/11 12:15:56;;;;;;;;;;;;;;;32.63;47.52;101881.44;5091920;28;20003;-76
2022/09/11 12:18:23;;;;;;;;;;;;;;;33.33;49.32;101873.22;5075376;28;19923;-76
2022/09/11 12:20:48;;;;;;;;;;;;;;;33.91;44.32;101874.88;5072119;28;20020;-77
2022/09/11 12:23:29;;;;;;;;;;;;;;;34.42;48.18;101868.19;5071872;28;20017;-77
2022/09/11 12:26:09;;;;;;;;;;;;;;;35.06;47.15;101860.38;5105938;28;19915;-77
2022/09/11 12:28:35;;;;;;;;;;;;;;;35.41;41.44;101865.16;5105712;28;19912;-76
2022/09/11 12:31:03;;;;;;;;;;;;;;;35.54;44.33;101856.63;5072245;28;20259;-77
2022/09/11 12:33:40;;;;;;;;;;;;;;;35.88;39.08;101854.97;5106314;28;19914;-77
2022/09/11 12:36:08;;;;;;;;;;;;;;;35.87;41.43;101853.31;5105512;28;19909;-77
2022/09/11 12:38:40;;;;;;;;;;;;;;;35.70;43.09;101849.56;5105540;28;19909;-77
2022/09/11 12:41:12;;;;;;;;;;;;;;;34.88;44.62;101843.81;5073072;28;19912;-76
2022/09/11 12:43:40;;;;;;;;;;;;;;;34.76;44.04;101841.84;5073187;28;19970;-77
2022/09/11 12:46:10;;;;;;;;;;;;;;;35.59;41.05;101842.09;5072804;28;19912;-77
2022/09/11 12:48:44;;;;;;;;;;;;;;;36.10;31.35;101843.31;5074468;28;20310;-77